Time;durP1;ratioP1;P1;durP2;ratioP2;P2;SDS_P1;SDS_P2;PMS_P1;PMS_P2;Temp;Humidity;BMP_temperature;BMP_pressure;BME280_temperature;BME280_humidity;BME280_pressure;Samples;Min_cycle;Max_cycle;Signal;HPM_P1;HPM_P2
2023/02/05 08:38:37;;;;;;;3.92;3.13;;;;;;;2.95;100.00;102555.06;2108883;27;21163;-63
2023/02/05 08:39:37;;;;;;;4.77;3.40;;;;;;;2.72;100.00;102496.28;2105008;28;20588;-63
2023/02/05 08:40:38;;;;;;;5.17;3.30;;;;;;;3.15;100.00;102558.94;2110101;28;20674;-63
2023/02/05 08:41:38;;;;;;;5.10;3.50;;;;;;;3.18;100.00;102561.78;2108904;28;20246;-63
2023/02/05 08:42:39;;;;;;;4.27;3.10;;;;;;;3.25;100.00;102558.53;2106703;28;20911;-63
2023/02/05 08:43:45;;;;;;;4.07;2.97;;;;;;;2.88;100.00;102499.25;2102031;28;20173;-64
2023/02/05 08:44:47;;;;;;;5.53;3.33;;;;;;;3.31;100.00;102559.91;2108524;28;20428;-63
2023/02/05 08:45:47;;;;;;;5.38;3.28;;;;;;;3.32;100.00;102551.34;2104755;28;20195;-63
2023/02/05 08:46:48;;;;;;;4.30;3.30;;;;;;;3.40;100.00;102553.22;2103171;28;20194;-64
2023/02/05 08:47:49;;;;;;;5.77;3.40;;;;;;;2.78;100.00;102437.44;2107185;28;20684;-63
2023/02/05 08:48:49;;;;;;;4.37;3.27;;;;;;;3.00;100.00;102458.19;2101664;28;20204;-63
2023/02/05 08:49:50;;;;;;;5.00;3.73;;;;;;;3.61;100.00;102550.41;2109510;28;20182;-63
2023/02/05 08:50:51;;;;;;;4.73;3.50;;;;;;;3.65;100.00;102552.13;2102035;28;20569;-63
2023/02/05 08:51:51;;;;;;;6.00;3.33;;;;;;;3.72;100.00;102546.09;2109029;28;20188;-63
2023/02/05 08:52:51;;;;;;;5.90;3.97;;;;;;;3.81;100.00;102547.63;2108423;28;20178;-63
2023/02/05 08:53:52;;;;;;;4.50;3.30;;;;;;;3.89;100.00;102546.69;2108417;28;20185;-63
2023/02/05 08:54:53;;;;;;;5.30;3.43;;;;;;;3.87;100.00;102542.69;2106018;28;20624;-64
2023/02/05 08:55:58;;;;;;;5.17;3.23;;;;;;;3.94;100.00;102545.66;2104663;28;20281;-64
2023/02/05 08:56:59;;;;;;;5.07;3.30;;;;;;;3.97;100.00;102537.59;2108244;28;20638;-64
2023/02/05 08:57:59;;;;;;;4.83;3.43;;;;;;;4.01;100.00;102546.69;2103428;28;20174;-64
2023/02/05 08:59:00;;;;;;;4.70;3.20;;;;;;;3.79;100.00;102538.13;2109197;28;20175;-63
2023/02/05 09:00:00;;;;;;;4.93;3.50;;;;;;;3.77;100.00;102541.22;2106730;28;20187;-64
2023/02/05 09:01:07;;;;;;;4.97;3.80;;;;;;;3.81;100.00;102539.41;2109627;28;20206;-63
2023/02/05 09:02:13;;;;;;;4.57;3.55;;;;;;;3.28;100.00;102451.78;2103041;28;20647;-64
2023/02/05 09:03:13;;;;;;;5.68;4.25;;;;;;;3.87;100.00;102540.78;2109514;28;20177;-64
2023/02/05 09:04:16;;;;;;;6.07;3.70;;;;;;;3.94;100.00;102546.47;2110057;28;20200;-63
2023/02/05 09:05:17;;;;;;;5.97;3.80;;;;;;;4.01;100.00;102535.72;2105089;28;20188;-64
2023/02/05 09:06:17;;;;;;;6.83;4.50;;;;;;;3.69;100.00;102481.78;2101664;28;20240;-64
2023/02/05 09:07:18;;;;;;;6.00;4.37;;;;;;;4.09;100.00;102542.25;2101625;28;20183;-64
2023/02/05 09:08:19;;;;;;;6.57;4.60;;;;;;;4.10;100.00;102541.91;2103137;28;20187;-64
2023/02/05 09:09:19;;;;;;;8.00;5.28;;;;;;;4.03;100.00;102538.94;2109559;28;20183;-64
2023/02/05 09:10:20;;;;;;;6.30;4.60;;;;;;;3.92;100.00;102526.84;2102196;28;20254;-64
2023/02/05 09:11:22;;;;;;;5.23;4.23;;;;;;;4.04;100.00;102537.81;2110495;28;20216;-64
2023/02/05 09:12:22;;;;;;;8.20;4.78;;;;;;;3.84;100.00;102549.66;2102940;28;20596;-64
2023/02/05 09:13:23;;;;;;;6.67;4.63;;;;;;;3.50;100.00;102541.03;2107308;28;20304;-64
2023/02/05 09:14:24;;;;;;;6.90;4.32;;;;;;;3.38;100.00;102547.25;2105400;28;20185;-63
2023/02/05 09:15:24;;;;;;;7.17;4.43;;;;;;;3.38;100.00;102546.47;2106276;28;20498;-63
2023/02/05 09:16:25;;;;;;;5.90;4.00;;;;;;;2.96;100.00;102545.72;2108201;28;20194;-63
2023/02/05 09:17:26;;;;;;;5.37;3.73;;;;;;;2.92;100.00;102547.50;2103861;28;20177;-63
2023/02/05 09:18:26;;;;;;;6.97;4.93;;;;;;;2.65;100.00;102555.44;2103807;28;20314;-63
2023/02/05 09:19:27;;;;;;;5.77;3.90;;;;;;;2.29;100.00;102550.53;2104903;28;20738;-63
2023/02/05 09:20:27;;;;;;;5.67;4.03;;;;;;;2.07;100.00;102547.25;2104242;28;20197;-63
2023/02/05 09:21:28;;;;;;;6.57;4.43;;;;;;;1.94;100.00;102551.00;2105294;28;20233;-63
2023/02/05 09:22:28;;;;;;;6.73;4.40;;;;;;;2.00;100.00;102527.84;2108669;28;20244;-63
2023/02/05 09:23:28;;;;;;;6.77;4.47;;;;;;;2.26;100.00;102551.19;2105422;28;20191;-63
2023/02/05 09:24:29;;;;;;;6.33;4.83;;;;;;;2.23;100.00;102534.63;2108934;28;20651;-63
2023/02/05 09:25:32;;;;;;;4.70;3.50;;;;;;;1.55;100.00;102472.06;2105592;28;20220;-63
2023/02/05 09:26:33;;;;;;;5.60;3.55;;;;;;;1.97;100.00;102561.28;2105790;28;20190;-63
2023/02/05 09:27:33;;;;;;;4.73;3.30;;;;;;;1.70;100.00;102553.50;2106300;28;20206;-63
2023/02/05 09:28:34;;;;;;;5.00;3.37;;;;;;;1.42;100.00;102501.19;2096867;28;20312;-62
2023/02/05 09:29:35;;;;;;;5.78;4.20;;;;;;;1.43;100.00;102534.75;2098880;28;20182;-63
2023/02/05 09:30:40;;;;;;;5.43;3.90;;;;;;;1.04;100.00;102466.72;2105457;28;21026;-63
2023/02/05 09:31:41;;;;;;;6.45;4.18;;;;;;;1.78;100.00;102550.75;2107165;28;20194;-63
2023/02/05 09:32:41;;;;;;;5.90;4.10;;;;;;;1.84;100.00;102557.63;2106465;28;20291;-63
2023/02/05 09:33:42;;;;;;;5.93;3.97;;;;;;;1.76;100.00;102558.47;2106936;28;20613;-63
2023/02/05 09:34:43;;;;;;;5.73;3.70;;;;;;;1.69;100.00;102552.69;2105647;28;20183;-63
2023/02/05 09:35:43;;;;;;;5.83;3.50;;;;;;;1.12;100.00;102472.16;2105368;28;20182;-63
2023/02/05 09:36:44;;;;;;;5.40;3.87;;;;;;;1.87;100.00;102557.00;2106258;28;20953;-62
2023/02/05 09:37:44;;;;;;;5.47;4.03;;;;;;;1.78;100.00;102549.94;2104349;28;20186;-63
2023/02/05 09:38:45;;;;;;;6.03;3.97;;;;;;;1.69;100.00;102554.66;2104720;28;20192;-63
2023/02/05 09:39:45;;;;;;;5.97;4.33;;;;;;;1.18;100.00;102450.97;2101037;28;20193;-62
2023/02/05 09:40:58;;;;;;;4.93;3.83;;;;;;;2.02;100.00;102553.72;2099934;28;20442;-63
2023/02/05 09:42:19;;;;;;;5.72;3.80;;;;;;;2.17;100.00;102538.69;2099739;28;20183;-63
2023/02/05 09:43:22;;;;;;;5.65;3.75;;;;;;;2.32;100.00;102547.13;2068850;28;20317;-63
2023/02/05 09:44:45;;;;;;;5.32;3.90;;;;;;;2.52;100.00;102557.31;2080340;28;20681;-63
2023/02/05 09:46:00;;;;;;;6.38;3.78;;;;;;;1.67;100.00;102409.31;2082026;28;20197;-63
2023/02/05 09:47:12;;;;;;;5.95;3.47;;;;;;;2.66;100.00;102557.03;2079243;28;20648;-63
2023/02/05 09:48:26;;;;;;;5.00;3.45;;;;;;;2.71;100.00;102554.13;2082494;28;20172;-62
2023/02/05 09:49:32;;;;;;;6.53;3.67;;;;;;;2.61;100.00;102566.25;2082309;28;20190;-63
2023/02/05 09:50:33;;;;;;;5.10;3.45;;;;;;;2.45;100.00;102558.94;2082179;28;20509;-62
2023/02/05 09:51:39;;;;;;;5.13;3.43;;;;;;;1.87;100.00;102463.22;2083505;28;20188;-63
2023/02/05 09:52:46;;;;;;;4.93;3.38;;;;;;;2.40;100.00;102561.88;2082108;28;20176;-62
2023/02/05 09:53:55;;;;;;;5.32;3.67;;;;;;;1.82;100.00;102471.63;2085020;28;20168;-62
2023/02/05 09:55:06;;;;;;;4.57;2.95;;;;;;;2.54;100.00;102556.97;2084820;28;20195;-62
2023/02/05 09:56:08;;;;;;;5.18;3.10;;;;;;;2.25;100.00;102507.72;2085579;28;20181;-63
2023/02/05 09:57:16;;;;;;;4.85;3.15;;;;;;;2.62;100.00;102564.34;2082706;28;20276;-62
2023/02/05 09:58:30;;;;;;;5.85;3.30;;;;;;;2.60;100.00;102552.91;2083957;28;20280;-62
2023/02/05 09:59:32;;;;;;;4.53;3.30;;;;;;;2.69;100.00;102553.66;2080812;28;20177;-62
2023/02/05 10:00:42;;;;;;;5.80;3.70;;;;;;;2.21;100.00;102452.88;2083631;28;20188;-62
2023/02/05 10:01:53;;;;;;;5.25;3.75;;;;;;;2.61;100.00;102555.31;2085277;28;20192;-62
2023/02/05 10:03:19;;;;;;;6.30;4.57;;;;;;;2.62;100.00;102567.88;2084059;28;20184;-62
2023/02/05 10:04:20;;;;;;;6.70;4.15;;;;;;;2.39;100.00;102479.00;2081440;28;20206;-63
2023/02/05 10:05:23;;;;;;;5.90;4.00;;;;;;;2.84;100.00;102539.38;2083436;28;20200;-63
2023/02/05 10:06:33;;;;;;;5.53;3.70;;;;;;;3.13;100.00;102562.00;2081150;28;20267;-62
2023/02/05 10:07:48;;;;;;;5.68;3.72;;;;;;;3.10;100.00;102556.41;2082478;28;20187;-63
2023/02/05 10:09:03;;;;;;;5.22;3.80;;;;;;;2.92;100.00;102550.25;2080586;28;20184;-62
2023/02/05 10:10:27;;;;;;;4.55;3.05;;;;;;;3.03;100.00;102548.72;2085413;28;20173;-62
2023/02/05 10:11:41;;;;;;;6.82;4.03;;;;;;;2.76;100.00;102549.25;2082233;28;20524;-62
2023/02/05 10:13:00;;;;;;;6.03;3.85;;;;;;;2.85;100.00;102543.72;2082064;28;20184;-62
2023/02/05 10:14:38;;;;;;;5.30;3.88;;;;;;;3.07;100.00;102549.66;2082342;28;20183;-62
2023/02/05 10:15:57;;;;;;;6.07;4.03;;;;;;;3.11;100.00;102547.03;2077958;28;20513;-62
2023/02/05 10:17:06;;;;;;;5.53;4.10;;;;;;;3.24;100.00;102545.97;2080631;28;20625;-62
2023/02/05 10:18:13;;;;;;;5.38;3.72;;;;;;;2.96;100.00;102545.72;2083467;28;20594;-62
2023/02/05 10:20:01;;;;;;;5.53;3.30;;;;;;;2.87;100.00;102544.19;2081796;28;20180;-62
2023/02/05 10:21:19;;;;;;;5.45;3.70;;;;;;;2.61;100.00;102549.03;2087035;28;20282;-62
2023/02/05 10:22:27;;;;;;;4.65;3.42;;;;;;;2.59;100.00;102548.56;2081448;28;20557;-62
2023/02/05 10:23:46;;;;;;;6.10;4.00;;;;;;;2.82;100.00;102555.34;2083224;28;20189;-63
2023/02/05 10:25:06;;;;;;;5.97;3.90;;;;;;;3.06;100.00;102553.53;2083183;28;20675;-62
2023/02/05 10:26:16;;;;;;;5.53;4.20;;;;;;;3.04;100.00;102522.91;2083058;28;20255;-63
2023/02/05 10:27:31;;;;;;;5.10;3.78;;;;;;;2.82;100.00;102476.72;2031957;28;20286;-63
2023/02/05 10:29:05;;;;;;;5.28;3.30;;;;;;;3.25;100.00;102548.38;2084045;28;20188;-62
2023/02/05 10:30:17;;;;;;;5.82;4.00;;;;;;;3.16;100.00;102546.81;2086499;28;20604;-63
2023/02/05 10:31:33;;;;;;;6.60;4.13;;;;;;;3.34;100.00;102549.06;2082177;28;20590;-62
2023/02/05 10:32:51;;;;;;;5.05;3.30;;;;;;;3.28;100.00;102544.16;2083275;28;20188;-63
2023/02/05 10:33:57;;;;;;;4.72;3.40;;;;;;;2.88;100.00;102482.81;2083869;28;20328;-62
2023/02/05 10:35:02;;;;;;;4.88;3.30;;;;;;;2.94;100.00;102487.75;2083034;28;20283;-63
2023/02/05 10:36:05;;;;;;;5.55;3.40;;;;;;;2.53;100.00;102446.72;2083023;28;20532;-62
2023/02/05 10:37:14;;;;;;;4.60;3.00;;;;;;;3.02;100.00;102541.63;2086150;28;20184;-62
2023/02/05 10:38:23;;;;;;;4.95;3.42;;;;;;;2.62;100.00;102483.00;2079924;28;20248;-63
2023/02/05 10:39:27;;;;;;;5.50;3.45;;;;;;;3.06;100.00;102536.28;2081420;28;20642;-63
2023/02/05 10:40:33;;;;;;;5.63;3.72;;;;;;;3.18;100.00;102548.09;1938858;28;63431;-63
2023/02/05 10:41:42;;;;;;;6.80;3.45;;;;;;;3.28;100.00;102544.16;2082946;28;20263;-63
2023/02/05 10:42:49;;;;;;;5.38;4.13;;;;;;;2.85;100.00;102467.84;2082509;28;20233;-62
2023/02/05 10:44:44;;;;;;;5.68;3.63;;;;;;;3.42;100.00;102547.38;2038182;27;61895;-63
2023/02/05 10:46:11;;;;;;;6.10;3.75;;;;;;;2.58;100.00;102459.38;2002385;28;65713;-63
2023/02/05 10:47:34;;;;;;;5.75;3.90;;;;;;;3.00;100.00;102543.09;2100675;28;20191;-63
2023/02/05 10:49:07;;;;;;;5.70;3.90;;;;;;;2.72;100.00;102515.47;2107894;28;20278;-63
2023/02/05 10:50:55;;;;;;;5.53;4.05;;;;;;;2.05;100.00;102404.59;2039310;28;107942;-63
2023/02/05 10:52:23;;;;;;;5.65;3.70;;;;;;;3.03;100.00;102542.44;2058405;27;21200;-63
2023/02/05 10:53:42;;;;;;;5.70;3.63;;;;;;;2.76;100.00;102483.53;1959718;28;63174;-63
2023/02/05 10:55:02;;;;;;;5.55;3.67;;;;;;;3.23;100.00;102547.88;2083659;28;20235;-64
2023/02/05 10:57:18;;;;;;;5.47;3.63;;;;;;;3.35;100.00;102547.94;2083003;28;21046;-63
2023/02/05 10:58:24;;;;;;;5.70;3.45;;;;;;;3.56;100.00;102542.41;2076801;28;20193;-63
2023/02/05 10:59:30;;;;;;;5.90;4.00;;;;;;;3.72;100.00;102537.88;1944692;28;65159;-63
2023/02/05 11:00:30;;;;;;;5.00;3.55;;;;;;;3.84;100.00;102541.44;2041382;28;20659;-63
2023/02/05 11:01:35;;;;;;;6.83;3.80;;;;;;;3.56;100.00;102480.16;2082657;28;20248;-63
2023/02/05 11:02:41;;;;;;;4.40;2.97;;;;;;;4.12;100.00;102539.66;2078674;28;20289;-62
2023/02/05 11:03:51;;;;;;;4.47;2.88;;;;;;;4.18;100.00;102540.22;2075679;28;20567;-63
2023/02/05 11:05:00;;;;;;;4.78;3.15;;;;;;;4.13;100.00;102538.50;2075549;28;20236;-62
2023/02/05 11:06:03;;;;;;;4.13;2.85;;;;;;;4.29;100.00;102538.59;2077028;28;20828;-63
2023/02/05 11:07:08;;;;;;;5.38;3.25;;;;;;;4.47;100.00;102531.75;2075792;28;20201;-63
2023/02/05 11:08:33;;;;;;;5.03;3.08;;;;;;;4.22;100.00;102532.91;2076465;28;20251;-63
2023/02/05 11:09:34;;;;;;;3.95;2.83;;;;;;;3.86;100.00;102527.38;2075411;28;20195;-63
2023/02/05 11:10:34;;;;;;;4.43;2.97;;;;;;;3.53;100.00;102526.63;2076367;28;20197;-63
2023/02/05 11:11:35;;;;;;;5.60;3.43;;;;;;;3.58;100.00;102526.41;2076995;28;20189;-62
2023/02/05 11:12:36;;;;;;;5.40;3.13;;;;;;;3.61;100.00;102531.22;2075566;28;20412;-63
2023/02/05 11:13:40;;;;;;;4.90;3.20;;;;;;;3.76;100.00;102523.16;2075509;28;20189;-63
2023/02/05 11:14:45;;;;;;;5.22;3.58;;;;;;;3.89;100.00;102534.91;2076615;28;20572;-63
2023/02/05 11:16:07;;;;;;;5.10;3.22;;;;;;;3.92;100.00;102521.34;2075607;28;20627;-62
2023/02/05 11:17:17;;;;;;;6.13;3.42;;;;;;;4.01;100.00;102524.75;2076149;28;20247;-62
2023/02/05 11:18:23;;;;;;;4.93;3.40;;;;;;;4.06;100.00;102531.97;2075893;28;20194;-62
2023/02/05 11:19:27;;;;;;;4.55;2.92;;;;;;;4.05;100.00;102528.44;2076373;28;20244;-63
2023/02/05 11:20:36;;;;;;;4.97;3.30;;;;;;;4.08;100.00;102526.94;2076175;28;20195;-63
2023/02/05 11:21:48;;;;;;;6.47;3.42;;;;;;;3.00;100.00;102423.41;2076013;28;20272;-63
2023/02/05 11:23:05;;;;;;;4.88;3.60;;;;;;;3.51;100.00;102529.72;2074327;28;20193;-62
2023/02/05 11:24:05;;;;;;;4.90;3.50;;;;;;;3.16;100.00;102531.19;2076738;28;20575;-62
2023/02/05 11:25:06;;;;;;;9.03;6.53;;;;;;;3.07;100.00;102524.19;2076793;28;20206;-63
2023/02/05 11:26:15;;;;;;;5.10;3.63;;;;;;;2.89;100.00;102518.06;2075529;28;20189;-63
2023/02/05 11:27:29;;;;;;;4.97;3.50;;;;;;;2.77;100.00;102531.69;2076532;28;20173;-63
2023/02/05 11:28:36;;;;;;;4.35;2.97;;;;;;;2.82;100.00;102527.97;2074526;28;20701;-63
2023/02/05 11:29:36;;;;;;;4.18;3.00;;;;;;;2.69;100.00;102505.19;2076103;28;20188;-62
2023/02/05 11:30:37;;;;;;;4.23;3.00;;;;;;;2.58;100.00;102460.16;2075589;28;20178;-63
2023/02/05 11:31:37;;;;;;;3.73;2.77;;;;;;;2.87;100.00;102533.25;2076319;28;21184;-62
2023/02/05 11:32:38;;;;;;;4.60;2.77;;;;;;;2.82;100.00;102520.53;2076746;28;20265;-63
2023/02/05 11:33:38;;;;;;;3.73;2.50;;;;;;;2.76;100.00;102521.88;2076190;28;20694;-63
2023/02/05 11:34:39;;;;;;;4.17;2.97;;;;;;;2.19;100.00;102421.53;2076592;28;20268;-62
2023/02/05 11:35:39;;;;;;;6.50;2.93;;;;;;;2.84;100.00;102514.72;2076859;28;20275;-63
2023/02/05 11:36:54;;;;;;;4.83;3.03;;;;;;;2.87;100.00;102519.56;2075763;28;20229;-62
2023/02/05 11:38:50;;;;;;;5.75;3.20;;;;;;;2.82;100.00;102514.28;2075354;28;20198;-63
2023/02/05 11:39:53;;;;;;;5.60;2.80;;;;;;;2.27;100.00;102484.38;2067112;28;20205;-62
2023/02/05 11:40:56;;;;;;;4.25;2.63;;;;;;;2.25;100.00;102514.00;2075073;28;20182;-62
2023/02/05 11:41:57;;;;;;;4.97;3.35;;;;;;;1.96;100.00;102458.53;2076881;28;20181;-62
2023/02/05 11:43:14;;;;;;;4.23;3.33;;;;;;;2.40;100.00;102518.91;2077286;28;20288;-62
2023/02/05 11:44:25;;;;;;;4.63;3.15;;;;;;;2.44;100.00;102503.44;2076987;28;20204;-63
2023/02/05 11:45:28;;;;;;;4.90;2.75;;;;;;;2.48;100.00;102509.03;2077006;28;20673;-63
2023/02/05 11:46:43;;;;;;;5.40;3.03;;;;;;;2.63;100.00;102513.94;2075342;28;20228;-63
2023/02/05 11:47:43;;;;;;;4.32;2.78;;;;;;;2.39;100.00;102442.63;2076121;28;20191;-62
2023/02/05 11:48:53;;;;;;;4.43;2.70;;;;;;;2.86;100.00;102507.78;2075464;28;20705;-63
2023/02/05 11:49:55;;;;;;;3.75;2.63;;;;;;;2.43;100.00;102414.28;2076661;28;20247;-63
2023/02/05 11:50:55;;;;;;;4.82;2.83;;;;;;;3.00;100.00;102489.13;2076505;28;20215;-62
2023/02/05 11:51:57;;;;;;;4.53;2.87;;;;;;;3.02;100.00;102506.03;2076706;28;20194;-63
2023/02/05 11:53:15;;;;;;;4.78;3.10;;;;;;;2.89;100.00;102457.84;2076715;28;20467;-63
2023/02/05 11:54:28;;;;;;;4.80;2.83;;;;;;;3.12;100.00;102500.13;2076569;28;20497;-62
2023/02/05 11:55:31;;;;;;;4.35;2.80;;;;;;;3.17;100.00;102501.84;2075450;28;20188;-63
2023/02/05 11:56:32;;;;;;;3.95;2.92;;;;;;;3.16;100.00;102487.38;2075977;28;20221;-62
2023/02/05 11:57:37;;;;;;;3.53;2.47;;;;;;;3.33;100.00;102492.66;2075747;28;20196;-63
2023/02/05 11:58:37;;;;;;;3.67;2.70;;;;;;;3.46;100.00;102493.50;2075179;28;20224;-63
2023/02/05 11:59:39;;;;;;;4.00;2.53;;;;;;;3.41;100.00;102478.09;2076283;28;20199;-62
2023/02/05 12:00:49;;;;;;;4.25;2.85;;;;;;;3.60;100.00;102494.78;2075405;28;20679;-63
2023/02/05 12:01:50;;;;;;;3.88;2.80;;;;;;;3.44;100.00;102455.47;2076230;28;20173;-62
2023/02/05 12:03:01;;;;;;;4.03;2.70;;;;;;;3.43;100.00;102467.56;2076241;28;20181;-62
2023/02/05 12:04:22;;;;;;;4.82;3.25;;;;;;;3.69;100.00;102494.69;2076757;28;20603;-62
2023/02/05 12:05:29;;;;;;;4.40;2.72;;;;;;;3.63;100.00;102498.78;2075997;28;20682;-62
2023/02/05 12:06:38;;;;;;;4.75;3.20;;;;;;;3.06;100.00;102399.31;2076540;28;20246;-62
2023/02/05 12:07:54;;;;;;;5.05;3.05;;;;;;;3.72;100.00;102500.28;2076245;28;20210;-63
2023/02/05 12:08:54;;;;;;;3.88;2.83;;;;;;;3.72;100.00;102496.75;2069843;28;20349;-62
2023/02/05 12:09:58;;;;;;;4.33;2.60;;;;;;;3.40;100.00;102464.72;2066349;28;20202;-62
2023/02/05 12:11:22;;;;;;;3.95;2.90;;;;;;;3.64;100.00;102492.19;2066717;28;20239;-63
2023/02/05 12:12:34;;;;;;;4.97;3.20;;;;;;;3.62;100.00;102492.50;2068698;28;20199;-63
2023/02/05 12:13:37;;;;;;;4.07;2.70;;;;;;;3.65;100.00;102497.28;2070411;28;20202;-63
2023/02/05 12:14:43;;;;;;;3.88;2.70;;;;;;;3.61;100.00;102492.84;2071405;28;20694;-63
2023/02/05 12:16:02;;;;;;;4.30;2.90;;;;;;;3.64;100.00;102492.19;2070330;28;20306;-62
2023/02/05 12:17:27;;;;;;;5.05;2.97;;;;;;;3.48;100.00;102496.69;2078962;28;20620;-63
2023/02/05 12:18:55;;;;;;;5.13;3.05;;;;;;;3.47;100.00;102493.16;2074592;28;20569;-62
2023/02/05 12:20:20;;;;;;;5.15;3.38;;;;;;;3.53;100.00;102491.81;2069865;28;20174;-63
2023/02/05 12:21:50;;;;;;;4.80;3.10;;;;;;;3.44;100.00;102491.09;2070465;28;20192;-62
2023/02/05 12:22:50;;;;;;;4.07;2.72;;;;;;;3.45;100.00;102489.94;2070177;28;20186;-62
2023/02/05 12:24:29;;;;;;;4.47;2.60;;;;;;;3.22;100.00;102455.88;2070855;28;20182;-62
2023/02/05 12:25:43;;;;;;;4.78;2.70;;;;;;;3.42;100.00;102493.38;2060888;28;20353;-63
2023/02/05 12:26:45;;;;;;;4.40;3.10;;;;;;;3.39;100.00;102493.25;2070896;28;20191;-63
2023/02/05 12:28:09;;;;;;;4.80;3.40;;;;;;;3.38;100.00;102486.19;2069911;28;20316;-63
2023/02/05 12:29:51;;;;;;;4.85;3.17;;;;;;;3.38;100.00;102497.16;2069911;28;20178;-63
2023/02/05 12:30:58;;;;;;;5.55;3.33;;;;;;;3.28;100.00;102489.34;2067129;28;20204;-63
2023/02/05 12:32:28;;;;;;;4.80;3.13;;;;;;;3.30;100.00;102487.06;2068540;28;20627;-63
2023/02/05 12:33:49;;;;;;;4.97;3.20;;;;;;;3.21;100.00;102500.84;2069255;28;20283;-63
2023/02/05 12:35:18;;;;;;;5.57;3.28;;;;;;;2.92;100.00;102448.94;2070058;28;20847;-63
2023/02/05 12:36:29;;;;;;;4.90;3.47;;;;;;;3.26;100.00;102495.16;2069690;28;20178;-63
2023/02/05 12:37:48;;;;;;;4.50;3.53;;;;;;;3.33;100.00;102489.91;2070047;28;20171;-63
2023/02/05 12:38:57;;;;;;;4.88;3.30;;;;;;;2.76;100.00;102430.72;2068991;28;20201;-63
2023/02/05 12:40:20;;;;;;;4.88;3.30;;;;;;;3.25;100.00;102493.56;2068224;28;20526;-62
2023/02/05 12:41:27;;;;;;;4.80;3.60;;;;;;;3.39;100.00;102494.03;2069742;28;20205;-63
2023/02/05 12:42:30;;;;;;;5.90;3.80;;;;;;;3.43;100.00;102494.16;2069731;28;20282;-62
2023/02/05 12:43:38;;;;;;;5.25;3.67;;;;;;;3.49;100.00;102490.88;2069557;28;20213;-63
2023/02/05 12:44:57;;;;;;;5.57;3.58;;;;;;;3.46;100.00;102497.06;2069222;28;20189;-63
2023/02/05 12:45:57;;;;;;;5.65;3.50;;;;;;;3.44;100.00;102490.31;2070786;28;20197;-63
2023/02/05 12:47:12;;;;;;;4.67;3.37;;;;;;;3.07;100.00;102414.63;2070585;28;20189;-63
2023/02/05 12:48:28;;;;;;;6.20;3.53;;;;;;;3.66;100.00;102495.38;2070413;28;20694;-63
2023/02/05 12:49:42;;;;;;;5.90;3.60;;;;;;;3.57;100.00;102492.72;2069428;28;20730;-63
2023/02/05 12:51:12;;;;;;;5.57;3.25;;;;;;;3.31;100.00;102456.59;2069412;28;20603;-63
2023/02/05 12:52:18;;;;;;;5.38;3.55;;;;;;;3.54;100.00;102492.63;2068827;28;20229;-63
2023/02/05 12:53:42;;;;;;;5.25;3.65;;;;;;;3.50;100.00;102497.16;2070421;28;20197;-62
2023/02/05 12:54:53;;;;;;;4.88;3.17;;;;;;;3.46;100.00;102485.28;2070918;28;20715;-63
2023/02/05 12:56:23;;;;;;;4.95;3.15;;;;;;;3.56;100.00;102487.59;2069474;28;20194;-63
2023/02/05 12:57:57;;;;;;;4.55;3.20;;;;;;;3.35;100.00;102489.59;2071220;28;20272;-62
2023/02/05 12:59:02;;;;;;;4.22;2.90;;;;;;;3.10;100.00;102488.72;2068410;28;20201;-63
2023/02/05 13:00:09;;;;;;;4.30;3.10;;;;;;;3.15;100.00;102502.22;2068401;28;20201;-62
2023/02/05 13:01:18;;;;;;;5.13;2.90;;;;;;;3.21;100.00;102489.91;2066835;28;20213;-63
2023/02/05 13:02:42;;;;;;;4.65;3.13;;;;;;;3.25;100.00;102495.50;2069543;28;20182;-62
2023/02/05 13:03:59;;;;;;;5.05;3.00;;;;;;;3.09;100.00;102497.28;2069152;28;20169;-63
2023/02/05 13:05:23;;;;;;;4.22;2.92;;;;;;;3.16;100.00;102506.53;2070516;28;20733;-63
2023/02/05 13:06:39;;;;;;;4.78;3.05;;;;;;;2.87;100.00;102456.56;2069312;28;20255;-62
2023/02/05 13:08:04;;;;;;;4.82;2.80;;;;;;;3.12;100.00;102502.06;2068516;28;20557;-63
2023/02/05 13:09:15;;;;;;;4.30;2.95;;;;;;;3.12;100.00;102508.34;2069884;28;20213;-63
2023/02/05 13:10:25;;;;;;;5.25;3.00;;;;;;;3.18;100.00;102508.97;2069194;28;20247;-63
2023/02/05 13:11:28;;;;;;;3.80;2.88;;;;;;;3.24;100.00;102510.34;2069402;28;20694;-63
2023/02/05 13:12:35;;;;;;;5.57;3.60;;;;;;;3.25;100.00;102500.97;2070433;28;20873;-63
2023/02/05 13:13:44;;;;;;;4.70;3.40;;;;;;;3.20;100.00;102490.22;2070733;28;20517;-62
2023/02/05 13:15:12;;;;;;;5.53;3.33;;;;;;;3.24;100.00;102508.38;2070603;28;20182;-62
2023/02/05 13:16:15;;;;;;;5.32;3.30;;;;;;;2.88;100.00;102453.47;2069991;28;20170;-63
2023/02/05 13:17:28;;;;;;;4.20;3.25;;;;;;;3.27;100.00;102499.50;2070352;28;20182;-62
2023/02/05 13:18:33;;;;;;;4.00;3.13;;;;;;;3.29;100.00;102502.69;2070271;28;20182;-62
2023/02/05 13:19:41;;;;;;;5.75;3.40;;;;;;;3.13;100.00;102476.28;2069366;28;20251;-63
2023/02/05 13:28:39;;;;;;;4.22;3.03;;;;;;;3.14;100.00;102499.81;2070675;28;20326;-63
2023/02/05 13:29:50;;;;;;;7.38;3.15;;;;;;;2.72;100.00;102435.28;2070868;28;20189;-63
2023/02/05 13:30:54;;;;;;;4.53;2.90;;;;;;;2.70;100.00;102435.63;2069916;28;20200;-62
2023/02/05 13:31:59;;;;;;;4.75;3.05;;;;;;;3.02;100.00;102500.56;2070057;28;20226;-62
2023/02/05 13:33:04;;;;;;;4.60;2.70;;;;;;;2.97;100.00;102492.53;2070887;28;20351;-62
2023/02/05 13:34:11;;;;;;;4.38;2.45;;;;;;;2.22;100.00;102374.38;2069936;28;20620;-63
2023/02/05 13:35:13;;;;;;;3.92;2.50;;;;;;;2.90;100.00;102477.78;2070872;28;20559;-62
2023/02/05 13:36:23;;;;;;;5.05;3.30;;;;;;;2.99;100.00;102495.72;2070511;28;20292;-62
2023/02/05 13:37:48;;;;;;;4.07;2.53;;;;;;;2.82;100.00;102492.38;2071140;28;20201;-62
2023/02/05 13:39:37;;;;;;;4.13;2.67;;;;;;;2.78;100.00;102496.91;2069520;28;20651;-62
2023/02/05 13:41:09;;;;;;;6.15;3.00;;;;;;;2.72;100.00;102495.50;2066897;28;20206;-62
2023/02/05 13:42:22;;;;;;;4.18;2.70;;;;;;;2.66;100.00;102492.16;2068852;28;20255;-63
2023/02/05 13:43:43;;;;;;;4.18;2.67;;;;;;;2.64;100.00;102485.41;2070866;28;20201;-62
2023/02/05 13:45:02;;;;;;;5.97;3.30;;;;;;;2.61;100.00;102489.63;2070237;28;20279;-63
2023/02/05 13:46:14;;;;;;;5.85;3.40;;;;;;;2.64;100.00;102483.50;2070916;28;20640;-63
2023/02/05 13:47:29;;;;;;;5.00;3.03;;;;;;;2.59;100.00;102488.34;2070776;28;20178;-63
2023/02/05 13:49:11;;;;;;;5.20;3.20;;;;;;;2.55;100.00;102492.88;2069836;28;20177;-63
2023/02/05 13:50:43;;;;;;;5.00;3.10;;;;;;;2.43;100.00;102481.88;2060835;28;20202;-62
2023/02/05 13:52:00;;;;;;;4.85;3.05;;;;;;;2.32;100.00;102475.19;2069302;28;20689;-63
2023/02/05 13:53:39;;;;;;;5.68;3.30;;;;;;;2.43;100.00;102485.44;2067543;28;20628;-63
2023/02/05 13:55:16;;;;;;;4.78;3.10;;;;;;;2.58;100.00;102487.53;2045425;29;20210;-63
2023/02/05 13:56:46;;;;;;;4.95;3.15;;;;;;;2.58;100.00;102486.75;2050108;28;20183;-62
2023/02/05 13:58:09;;;;;;;4.75;3.30;;;;;;;2.56;100.00;102489.81;2070488;28;20181;-63
2023/02/05 13:59:21;;;;;;;4.47;3.22;;;;;;;2.55;100.00;102479.19;2070575;28;20180;-63
2023/02/05 14:00:24;;;;;;;5.05;3.30;;;;;;;2.59;100.00;102483.69;2069254;28;20280;-62
2023/02/05 14:01:28;;;;;;;5.07;3.30;;;;;;;2.67;100.00;102477.34;2070740;28;20216;-63
2023/02/05 14:02:48;;;;;;;4.38;3.30;;;;;;;2.81;100.00;102488.00;2069627;28;20297;-63
2023/02/05 14:04:00;;;;;;;4.25;2.90;;;;;;;2.80;100.00;102478.19;2069913;28;20198;-63
2023/02/05 14:05:02;;;;;;;3.38;2.60;;;;;;;2.83;100.00;102478.31;2070122;28;20308;-63
2023/02/05 14:06:20;;;;;;;4.32;2.90;;;;;;;2.88;100.00;102489.06;2069915;28;20874;-63
2023/02/05 14:07:28;;;;;;;4.03;3.03;;;;;;;2.90;100.00;102480.53;2070836;28;20189;-63
2023/02/05 14:08:35;;;;;;;4.18;2.72;;;;;;;2.90;100.00;102480.53;2070354;28;20201;-63
2023/02/05 14:09:55;;;;;;;4.55;2.78;;;;;;;2.94;100.00;102487.75;2070596;28;20293;-62
2023/02/05 14:10:59;;;;;;;3.45;2.72;;;;;;;3.03;100.00;102496.66;2069555;28;20186;-63
2023/02/05 14:12:04;;;;;;;4.50;2.70;;;;;;;3.16;100.00;102492.03;2068191;28;20587;-63
2023/02/05 14:13:08;;;;;;;4.80;2.83;;;;;;;3.13;100.00;102492.72;2068819;28;20197;-63
2023/02/05 14:14:20;;;;;;;4.50;2.80;;;;;;;3.15;100.00;102484.97;2069522;28;20663;-63